createdAt,value
2023-04-18T00:00:28.581Z,69.54
2023-04-18T00:02:55.523Z,69.37
2023-04-18T00:05:22.729Z,69.44
2023-04-18T00:07:49.677Z,69.35
2023-04-18T00:10:16.897Z,69.30
2023-04-18T00:12:43.560Z,69.39
2023-04-18T00:15:10.687Z,69.36
2023-04-18T00:17:37.444Z,68.98
2023-04-18T00:20:05.732Z,68.80
2023-04-18T00:22:32.507Z,68.90
2023-04-18T00:24:59.878Z,68.92
2023-04-18T00:27:26.501Z,69.22
2023-04-18T00:29:53.153Z,69.34
2023-04-18T00:32:19.839Z,69.52
2023-04-18T00:34:46.633Z,69.49
2023-04-18T00:37:13.323Z,69.73
2023-04-18T00:39:41.940Z,69.74
2023-04-18T00:42:08.800Z,69.82
2023-04-18T00:44:35.492Z,69.81
2023-04-18T00:47:02.121Z,69.72
2023-04-18T00:49:28.947Z,69.91
2023-04-18T00:51:56.597Z,69.72
2023-04-18T00:54:24.609Z,69.79
2023-04-18T00:56:51.633Z,69.85
2023-04-18T00:59:18.866Z,69.98
2023-04-18T01:01:45.751Z,69.92
2023-04-18T01:04:12.676Z,69.89
2023-04-18T01:06:40.458Z,69.02
2023-04-18T01:09:07.181Z,69.80
2023-04-18T01:11:33.833Z,69.78
2023-04-18T01:14:05.821Z,69.40
2023-04-18T01:16:35.483Z,69.56
2023-04-18T01:19:03.358Z,69.64
2023-04-18T01:21:31.157Z,69.63
2023-04-18T01:24:07.818Z,68.74
2023-04-18T01:26:34.450Z,69.94
2023-04-18T01:29:04.780Z,70.05
2023-04-18T01:31:34.683Z,69.10
2023-04-18T01:34:01.357Z,69.43
2023-04-18T01:36:28.037Z,69.54
2023-04-18T01:38:54.989Z,69.64
2023-04-18T01:41:22.426Z,69.62
2023-04-18T01:43:49.071Z,69.47
2023-04-18T01:46:15.905Z,69.56
2023-04-18T01:48:42.961Z,69.69
2023-04-18T01:51:09.696Z,69.88
2023-04-18T01:53:38.159Z,69.90
2023-04-18T01:56:05.073Z,69.78
2023-04-18T01:58:31.777Z,69.87
2023-04-18T02:00:58.857Z,69.79
2023-04-18T02:03:25.746Z,69.85
2023-04-18T02:05:52.952Z,69.67
2023-04-18T02:08:19.733Z,69.80
2023-04-18T02:10:46.402Z,69.57
2023-04-18T02:13:12.980Z,69.61
2023-04-18T02:15:39.673Z,69.66
2023-04-18T02:18:06.484Z,69.64
2023-04-18T02:20:33.121Z,69.63
2023-04-18T02:23:03.191Z,69.26
2023-04-18T02:25:30.381Z,69.12
2023-04-18T02:27:57.747Z,68.95
2023-04-18T02:30:25.568Z,68.87
2023-04-18T02:32:53.170Z,69.11
2023-04-18T02:35:24.322Z,69.08
2023-04-18T02:37:51.201Z,69.40
2023-04-18T02:40:18.674Z,69.53
2023-04-18T02:42:45.697Z,69.53
2023-04-18T02:45:14.793Z,69.55
2023-04-18T02:47:53.838Z,69.70
2023-04-18T02:50:21.897Z,69.86
2023-04-18T02:52:49.052Z,69.74
2023-04-18T02:55:18.026Z,69.54
2023-04-18T02:57:45.460Z,69.61
2023-04-18T03:00:53.308Z,69.20
2023-04-18T03:03:43.024Z,68.73
2023-04-18T03:06:41.857Z,68.63
2023-04-18T03:09:08.916Z,68.44
2023-04-18T03:11:39.724Z,68.68
2023-04-18T03:14:06.896Z,69.19
2023-04-18T03:16:41.566Z,69.09
2023-04-18T03:19:11.671Z,68.96
2023-04-18T03:21:38.425Z,69.21
2023-04-18T03:24:05.785Z,69.55
2023-04-18T03:26:34.004Z,69.44
2023-04-18T03:29:01.841Z,69.42
2023-04-18T03:31:29.007Z,69.59
2023-04-18T03:33:55.691Z,69.60
2023-04-18T03:36:22.434Z,69.80
2023-04-18T03:38:49.059Z,69.79
2023-04-18T03:41:15.743Z,69.40
2023-04-18T03:43:42.377Z,69.23
2023-04-18T03:46:09.015Z,69.26
2023-04-18T03:48:36.620Z,68.78
2023-04-18T03:51:07.743Z,68.61
2023-04-18T03:53:35.462Z,68.86
2023-04-18T03:56:02.182Z,69.19
2023-04-18T03:58:44.512Z,69.18
2023-04-18T04:01:11.408Z,69.56
2023-04-18T04:03:38.819Z,69.86
2023-04-18T04:06:06.388Z,70.02
2023-04-18T04:08:34.007Z,69.98
2023-04-18T04:11:01.006Z,69.81
2023-04-18T04:13:28.099Z,69.89
2023-04-18T04:15:55.014Z,69.85
2023-04-18T04:18:21.740Z,69.87
2023-04-18T04:20:48.365Z,69.81
2023-04-18T04:23:28.284Z,69.82
2023-04-18T04:25:55.582Z,69.25
2023-04-18T04:28:35.907Z,69.20
2023-04-18T04:31:04.771Z,69.20
2023-04-18T04:33:31.545Z,69.17
2023-04-18T04:36:00.743Z,69.34
2023-04-18T04:38:29.352Z,69.65
2023-04-18T04:40:56.259Z,69.97
2023-04-18T04:43:23.238Z,70.22
2023-04-18T04:45:50.792Z,70.10
2023-04-18T04:48:22.093Z,70.17
2023-04-18T04:50:54.331Z,69.42
2023-04-18T04:53:21.564Z,70.02
2023-04-18T04:55:49.197Z,70.42
2023-04-18T04:58:17.434Z,70.73
2023-04-18T05:01:02.654Z,70.79
2023-04-18T05:03:31.603Z,70.67
2023-04-18T05:05:58.429Z,70.91
2023-04-18T05:08:25.232Z,71.01
2023-04-18T05:10:51.955Z,71.18
2023-04-18T05:13:18.591Z,71.19
2023-04-18T05:15:45.330Z,71.16
2023-04-18T05:18:11.993Z,71.25
2023-04-18T05:20:38.649Z,71.28
2023-04-18T05:23:05.301Z,71.37
2023-04-18T05:25:32.058Z,71.56
2023-04-18T05:28:00.490Z,71.51
2023-04-18T05:30:27.082Z,72.02
2023-04-18T05:32:53.812Z,72.08
2023-04-18T05:35:20.523Z,72.14
2023-04-18T05:37:47.166Z,72.22
2023-04-18T05:40:14.110Z,72.27
2023-04-18T05:42:40.757Z,72.16
2023-04-18T05:45:07.962Z,72.36
2023-04-18T05:47:34.657Z,72.30
2023-04-18T05:50:01.332Z,72.32
2023-04-18T05:52:27.924Z,72.25
2023-04-18T05:54:54.652Z,72.20
2023-04-18T05:57:21.207Z,71.73
2023-04-18T05:59:47.910Z,71.06
2023-04-18T06:02:14.969Z,70.37
2023-04-18T06:04:42.883Z,70.19
2023-04-18T06:07:10.197Z,70.27
2023-04-18T06:09:36.933Z,70.42
2023-04-18T06:12:04.010Z,70.04
2023-04-18T06:14:30.824Z,70.12
2023-04-18T06:16:57.567Z,69.80
2023-04-18T06:19:24.206Z,69.81
2023-04-18T06:21:52.206Z,70.11
2023-04-18T06:24:18.823Z,70.58
2023-04-18T06:26:45.410Z,69.23
2023-04-18T06:29:12.172Z,67.36
2023-04-18T06:31:38.845Z,64.45
2023-04-18T06:34:06.332Z,65.34
2023-04-18T06:36:35.463Z,66.10
2023-04-18T06:39:02.147Z,65.81
2023-04-18T06:41:28.722Z,66.75
2023-04-18T06:44:03.578Z,66.53
2023-04-18T06:46:31.714Z,67.36
2023-04-18T06:48:58.626Z,67.61
2023-04-18T06:51:25.254Z,65.91
2023-04-18T06:53:51.827Z,66.38
2023-04-18T06:56:21.632Z,65.51
2023-04-18T06:58:48.656Z,66.54
2023-04-18T07:01:15.416Z,64.31
2023-04-18T07:03:42.134Z,64.51
2023-04-18T07:06:08.894Z,64.53
2023-04-18T07:08:36.047Z,61.98
2023-04-18T07:11:02.655Z,62.45
2023-04-18T07:13:29.321Z,62.77
2023-04-18T07:15:56.108Z,60.82
2023-04-18T07:18:34.162Z,58.36
2023-04-18T07:21:03.900Z,59.08
2023-04-18T07:23:30.510Z,58.15
2023-04-18T07:25:57.081Z,57.16
2023-04-18T07:28:23.757Z,57.55
2023-04-18T07:30:50.494Z,59.60
2023-04-18T07:33:17.158Z,59.52
2023-04-18T07:35:43.795Z,60.60
2023-04-18T07:38:10.366Z,61.76
2023-04-18T07:40:36.923Z,62.66
2023-04-18T07:43:03.649Z,62.47
2023-04-18T07:45:31.046Z,59.25
2023-04-18T07:47:57.780Z,60.86
2023-04-18T07:50:24.575Z,60.13
2023-04-18T07:52:51.187Z,58.72
2023-04-18T07:55:17.876Z,59.46
2023-04-18T07:57:45.949Z,59.17
2023-04-18T08:00:14.469Z,56.62
2023-04-18T08:02:41.456Z,56.49
2023-04-18T08:05:09.039Z,56.82
2023-04-18T08:07:36.320Z,57.84
2023-04-18T08:10:03.679Z,58.26
2023-04-18T08:12:30.547Z,57.09
2023-04-18T08:14:57.114Z,55.90
2023-04-18T08:17:24.036Z,57.24
2023-04-18T08:19:50.928Z,57.29
2023-04-18T08:22:17.484Z,58.57
2023-04-18T08:25:01.008Z,57.87
2023-04-18T08:27:30.317Z,58.89
2023-04-18T08:29:56.951Z,58.36
2023-04-18T08:32:23.818Z,58.91
2023-04-18T08:34:50.424Z,59.21
2023-04-18T08:37:17.404Z,59.79
2023-04-18T08:39:44.153Z,60.70
2023-04-18T08:42:10.996Z,59.49
2023-04-18T08:44:37.690Z,57.30
2023-04-18T08:47:04.517Z,58.05
2023-04-18T08:49:31.263Z,59.13
2023-04-18T08:51:59.977Z,59.20
2023-04-18T08:54:27.511Z,57.76
2023-04-18T08:57:07.213Z,58.63
2023-04-18T08:59:33.907Z,58.37
2023-04-18T09:02:00.527Z,58.22
2023-04-18T09:04:39.145Z,58.06
2023-04-18T09:07:09.253Z,58.72
2023-04-18T09:09:47.891Z,57.27
2023-04-18T09:12:19.320Z,58.20
2023-04-18T09:14:46.648Z,59.68
2023-04-18T09:17:15.653Z,60.16
2023-04-18T09:19:49.296Z,58.78
2023-04-18T09:22:17.155Z,58.80
2023-04-18T09:24:53.123Z,57.63
2023-04-18T09:27:20.032Z,57.33
2023-04-18T09:29:48.393Z,57.47
2023-04-18T09:32:29.287Z,58.27
2023-04-18T09:35:03.415Z,58.70
2023-04-18T09:37:31.355Z,58.22
2023-04-18T09:39:58.044Z,58.76
2023-04-18T09:42:28.205Z,58.37
2023-04-18T09:45:07.051Z,58.43
2023-04-18T09:47:35.634Z,60.11
2023-04-18T09:50:07.562Z,57.96
2023-04-18T09:52:36.213Z,57.77
2023-04-18T09:55:05.623Z,58.91
2023-04-18T09:57:33.872Z,57.97
2023-04-18T10:00:03.815Z,58.96
2023-04-18T10:02:39.140Z,58.80
2023-04-18T10:05:06.687Z,58.03
2023-04-18T10:07:33.456Z,59.01
2023-04-18T10:10:00.140Z,59.61
2023-04-18T10:12:27.036Z,59.93
2023-04-18T10:14:54.591Z,59.66
2023-04-18T10:17:21.350Z,60.12
2023-04-18T10:20:03.908Z,60.12
2023-04-18T10:22:30.617Z,60.56
2023-04-18T10:24:57.199Z,61.09
2023-04-18T10:27:48.983Z,60.34
2023-04-18T10:30:16.717Z,59.24
2023-04-18T10:32:43.586Z,59.32
2023-04-18T10:35:11.363Z,59.94
2023-04-18T10:37:59.884Z,60.18
2023-04-18T10:40:34.153Z,59.83
2023-04-18T10:43:01.565Z,62.94
2023-04-18T10:45:32.904Z,62.45
2023-04-18T10:48:28.105Z,61.92
2023-04-18T10:51:14.553Z,59.72
2023-04-18T10:53:49.097Z,57.82
2023-04-18T10:56:15.931Z,56.30
2023-04-18T10:58:49.354Z,55.98
2023-04-18T11:01:24.719Z,56.42
2023-04-18T11:03:51.697Z,57.51
2023-04-18T11:06:18.427Z,58.02
2023-04-18T11:08:45.349Z,58.36
2023-04-18T11:11:13.704Z,58.36
2023-04-18T11:13:59.647Z,58.26
2023-04-18T11:16:31.887Z,58.25
2023-04-18T11:18:58.587Z,58.24
2023-04-18T11:21:30.642Z,56.08
2023-04-18T11:23:58.397Z,54.66
2023-04-18T11:26:26.346Z,56.40
2023-04-18T11:28:59.187Z,56.83
2023-04-18T11:31:26.058Z,57.15
2023-04-18T11:33:52.720Z,56.43
2023-04-18T11:36:19.603Z,54.69
2023-04-18T11:38:46.392Z,55.72
2023-04-18T11:41:16.073Z,56.53
2023-04-18T11:43:44.588Z,58.15
2023-04-18T11:46:12.519Z,59.43
2023-04-18T11:48:41.795Z,59.83
2023-04-18T11:51:29.732Z,59.90
2023-04-18T11:53:56.444Z,59.36
2023-04-18T11:56:23.091Z,55.92
2023-04-18T11:58:49.826Z,55.92
2023-04-18T12:01:21.596Z,56.60
2023-04-18T12:04:05.660Z,56.43
2023-04-18T12:06:49.354Z,55.99
2023-04-18T12:09:17.265Z,55.73
2023-04-18T12:11:44.338Z,55.28
2023-04-18T12:14:21.124Z,56.24
2023-04-18T12:16:51.743Z,56.23
2023-04-18T12:19:18.862Z,57.28
2023-04-18T12:22:00.278Z,56.31
2023-04-18T12:24:27.959Z,54.43
2023-04-18T12:26:55.573Z,54.47
2023-04-18T12:29:22.235Z,54.62
2023-04-18T12:31:48.954Z,54.91
2023-04-18T12:34:15.951Z,53.70
2023-04-18T12:36:42.997Z,53.74
2023-04-18T12:39:09.654Z,55.07
2023-04-18T12:41:36.510Z,51.68
2023-04-18T12:44:03.725Z,51.03
2023-04-18T12:46:30.753Z,52.51
2023-04-18T12:48:57.500Z,54.30
2023-04-18T12:51:25.455Z,53.83
2023-04-18T12:53:52.219Z,51.39
2023-04-18T12:56:18.832Z,52.29
2023-04-18T12:58:45.524Z,53.29
2023-04-18T13:01:12.436Z,52.74
2023-04-18T13:03:39.252Z,53.82
2023-04-18T13:06:06.155Z,54.86
2023-04-18T13:08:32.823Z,55.74
2023-04-18T13:10:59.676Z,54.66
2023-04-18T13:13:26.399Z,54.56
2023-04-18T13:15:53.246Z,54.81
2023-04-18T13:18:22.840Z,54.62
2023-04-18T13:20:49.633Z,55.07
2023-04-18T13:23:16.231Z,54.68
2023-04-18T13:25:43.003Z,55.49
2023-04-18T13:28:09.668Z,55.50
2023-04-18T13:30:36.408Z,55.07
2023-04-18T13:33:03.158Z,55.75
2023-04-18T13:35:30.176Z,55.20
2023-04-18T13:37:56.829Z,55.82
2023-04-18T13:40:23.492Z,56.86
2023-04-18T13:42:50.156Z,56.87
2023-04-18T13:45:16.760Z,58.01
2023-04-18T13:47:43.433Z,58.82
2023-04-18T13:50:10.410Z,58.71
2023-04-18T13:52:37.063Z,58.74
2023-04-18T13:55:03.993Z,58.98
2023-04-18T13:57:30.825Z,59.12
2023-04-18T13:59:57.708Z,58.12
2023-04-18T14:02:24.425Z,58.91
2023-04-18T14:04:51.321Z,58.89
2023-04-18T14:07:18.063Z,58.96
2023-04-18T14:09:44.807Z,58.76
2023-04-18T14:12:11.418Z,59.14
2023-04-18T14:14:38.150Z,59.75
2023-04-18T14:17:05.073Z,59.97
2023-04-18T14:19:31.673Z,58.62
2023-04-18T14:21:58.226Z,58.87
2023-04-18T14:24:24.875Z,59.48
2023-04-18T14:26:51.430Z,58.53
2023-04-18T14:29:18.067Z,58.64
2023-04-18T14:31:44.905Z,58.64
2023-04-18T14:34:11.709Z,59.43
2023-04-18T14:36:38.396Z,59.71
2023-04-18T14:39:04.989Z,60.52
2023-04-18T14:41:31.841Z,58.93
2023-04-18T14:43:58.479Z,59.67
2023-04-18T14:46:25.175Z,60.17
2023-04-18T14:48:51.827Z,60.42
2023-04-18T14:51:18.422Z,61.04
2023-04-18T14:53:45.222Z,60.04
2023-04-18T14:56:12.201Z,60.22
2023-04-18T14:58:38.805Z,59.86
2023-04-18T15:01:05.612Z,59.43
2023-04-18T15:03:32.505Z,59.44
2023-04-18T15:05:59.514Z,59.66
2023-04-18T15:08:26.177Z,57.88
2023-04-18T15:10:52.876Z,58.59
2023-04-18T15:13:20.935Z,59.54
2023-04-18T15:15:52.233Z,59.57
2023-04-18T15:18:18.991Z,60.72
2023-04-18T15:20:45.703Z,61.32
2023-04-18T15:23:12.298Z,60.94
2023-04-18T15:25:39.059Z,60.30
2023-04-18T15:28:05.791Z,60.19
2023-04-18T15:30:32.908Z,60.43
2023-04-18T15:32:59.491Z,60.11
2023-04-18T15:35:26.273Z,60.60
2023-04-18T15:37:52.884Z,60.94
2023-04-18T15:40:19.671Z,60.96
2023-04-18T15:42:46.345Z,59.69
2023-04-18T15:45:12.920Z,59.28
2023-04-18T15:47:39.621Z,60.05
2023-04-18T15:50:07.017Z,59.81
2023-04-18T15:52:33.865Z,59.92
2023-04-18T15:55:00.657Z,60.19
2023-04-18T15:57:27.392Z,59.47
2023-04-18T15:59:54.096Z,59.50
2023-04-18T16:02:20.760Z,60.17
2023-04-18T16:04:47.567Z,60.89
2023-04-18T16:07:14.199Z,58.75
2023-04-18T16:09:40.803Z,58.66
2023-04-18T16:12:07.538Z,58.75
2023-04-18T16:14:34.214Z,58.58
2023-04-18T16:17:00.775Z,59.35
2023-04-18T16:19:27.476Z,58.55
2023-04-18T16:21:54.116Z,58.75
2023-04-18T16:24:20.744Z,58.76
2023-04-18T16:26:47.383Z,57.45
2023-04-18T16:29:13.949Z,57.79
2023-04-18T16:31:40.651Z,57.80
2023-04-18T16:34:07.374Z,58.26
2023-04-18T16:36:34.198Z,57.75
2023-04-18T16:39:00.867Z,58.79
2023-04-18T16:41:27.598Z,59.29
2023-04-18T16:43:54.160Z,60.08
2023-04-18T16:46:23.932Z,60.25
2023-04-18T16:48:52.285Z,59.83
2023-04-18T16:51:19.158Z,59.33
2023-04-18T16:53:45.776Z,59.77
2023-04-18T16:56:12.420Z,59.62
2023-04-18T16:58:39.142Z,59.32
2023-04-18T17:01:05.719Z,59.69
2023-04-18T17:03:32.634Z,60.25
2023-04-18T17:05:59.371Z,60.10
2023-04-18T17:08:25.946Z,60.29
2023-04-18T17:10:52.808Z,60.69
2023-04-18T17:13:19.575Z,60.39
2023-04-18T17:15:46.298Z,60.42
2023-04-18T17:18:12.892Z,60.98
2023-04-18T17:20:39.540Z,61.18
2023-04-18T17:23:06.129Z,61.29
2023-04-18T17:25:32.911Z,61.39
2023-04-18T17:27:59.500Z,61.48
2023-04-18T17:30:28.978Z,60.65
2023-04-18T17:32:55.670Z,60.67
2023-04-18T17:35:22.544Z,60.89
2023-04-18T17:37:49.762Z,61.38
2023-04-18T17:40:16.388Z,61.16
2023-04-18T17:42:43.088Z,61.61
2023-04-18T17:45:10.428Z,61.84
2023-04-18T17:47:37.110Z,61.96
2023-04-18T17:50:04.521Z,61.53
2023-04-18T17:52:31.290Z,61.74
2023-04-18T17:54:59.229Z,61.99
2023-04-18T17:57:26.220Z,61.75
2023-04-18T17:59:53.310Z,61.64
2023-04-18T18:02:20.182Z,61.97
2023-04-18T18:04:46.835Z,62.07
2023-04-18T18:07:13.394Z,62.62
2023-04-18T18:09:40.001Z,63.07
2023-04-18T18:12:06.791Z,62.93
2023-04-18T18:14:33.357Z,62.97
2023-04-18T18:16:59.956Z,63.14
2023-04-18T18:19:26.800Z,63.24
2023-04-18T18:21:53.366Z,63.39
2023-04-18T18:24:19.984Z,63.49
2023-04-18T18:26:48.546Z,63.05
2023-04-18T18:29:16.490Z,63.43
2023-04-18T18:31:43.412Z,63.86
2023-04-18T18:34:10.065Z,64.02
2023-04-18T18:36:36.927Z,64.19
2023-04-18T18:39:03.723Z,63.86
2023-04-18T18:41:30.316Z,64.11
2023-04-18T18:43:56.951Z,64.29
2023-04-18T18:46:23.542Z,64.62
2023-04-18T18:48:50.188Z,64.67
2023-04-18T18:51:18.775Z,64.80
2023-04-18T18:53:46.566Z,64.71
2023-04-18T18:56:13.272Z,64.35
2023-04-18T18:58:39.940Z,64.58
2023-04-18T19:01:06.886Z,64.68
2023-04-18T19:03:33.628Z,64.36
2023-04-18T19:06:00.405Z,64.64
2023-04-18T19:08:27.041Z,64.77
2023-04-18T19:10:53.594Z,64.88
2023-04-18T19:13:21.708Z,64.87
2023-04-18T19:15:48.353Z,64.71
2023-04-18T19:18:15.320Z,65.30
2023-04-18T19:20:42.096Z,64.98
2023-04-18T19:23:08.779Z,64.78
2023-04-18T19:25:35.346Z,64.96
2023-04-18T19:28:02.015Z,65.05
2023-04-18T19:30:28.748Z,65.13
2023-04-18T19:32:55.345Z,65.35
2023-04-18T19:35:22.067Z,65.39
2023-04-18T19:37:48.720Z,65.60
2023-04-18T19:40:15.431Z,65.46
2023-04-18T19:42:42.039Z,65.73
2023-04-18T19:45:09.137Z,65.84
2023-04-18T19:47:35.773Z,65.81
2023-04-18T19:50:03.676Z,65.88
2023-04-18T19:52:30.551Z,65.43
2023-04-18T19:54:57.192Z,65.08
2023-04-18T19:57:23.824Z,65.15
2023-04-18T19:59:50.479Z,65.14
2023-04-18T20:02:17.081Z,65.23
2023-04-18T20:04:43.913Z,64.81
2023-04-18T20:07:10.746Z,64.92
2023-04-18T20:09:37.489Z,65.25
2023-04-18T20:12:04.136Z,65.61
2023-04-18T20:14:32.325Z,65.52
2023-04-18T20:16:58.975Z,65.80
2023-04-18T20:19:25.686Z,65.90
2023-04-18T20:21:52.657Z,65.95
2023-04-18T20:24:19.489Z,66.01
2023-04-18T20:26:46.080Z,65.97
2023-04-18T20:29:13.016Z,66.11
2023-04-18T20:31:39.964Z,66.18
2023-04-18T20:34:06.733Z,66.07
2023-04-18T20:36:33.307Z,66.02
2023-04-18T20:38:59.954Z,65.90
2023-04-18T20:41:26.624Z,66.08
2023-04-18T20:43:53.411Z,66.17
2023-04-18T20:46:20.034Z,66.19
2023-04-18T20:48:46.734Z,66.27
2023-04-18T20:51:13.345Z,66.40
2023-04-18T20:53:40.059Z,66.33
2023-04-18T20:56:06.854Z,66.40
2023-04-18T20:58:33.516Z,66.49
2023-04-18T21:01:00.192Z,66.48
2023-04-18T21:03:26.864Z,66.36
2023-04-18T21:05:53.704Z,66.50
2023-04-18T21:08:20.268Z,66.18
2023-04-18T21:10:47.010Z,66.07
2023-04-18T21:13:13.557Z,65.85
2023-04-18T21:15:41.475Z,65.60
2023-04-18T21:18:08.235Z,65.61
2023-04-18T21:20:34.835Z,65.49
2023-04-18T21:23:01.490Z,65.33
2023-04-18T21:25:28.306Z,65.17
2023-04-18T21:27:54.877Z,65.37
2023-04-18T21:30:21.613Z,65.47
2023-04-18T21:32:48.195Z,65.20
2023-04-18T21:35:16.073Z,65.25
2023-04-18T21:37:43.973Z,65.48
2023-04-18T21:40:10.828Z,65.40
2023-04-18T21:42:37.442Z,65.41
2023-04-18T21:45:05.844Z,65.54
2023-04-18T21:47:32.763Z,65.64
2023-04-18T21:49:59.790Z,65.83
2023-04-18T21:52:26.480Z,65.95
2023-04-18T21:54:53.130Z,65.90
2023-04-18T21:57:19.801Z,66.09
2023-04-18T21:59:46.357Z,66.04
2023-04-18T22:02:12.955Z,66.04
2023-04-18T22:04:39.628Z,65.80
2023-04-18T22:07:06.256Z,65.96
2023-04-18T22:09:35.332Z,65.94
2023-04-18T22:12:02.008Z,66.19
2023-04-18T22:14:28.583Z,66.40
2023-04-18T22:16:55.184Z,66.42
2023-04-18T22:19:21.937Z,65.97
2023-04-18T22:21:48.692Z,66.28
2023-04-18T22:24:15.506Z,66.32
2023-04-18T22:26:42.379Z,66.37
2023-04-18T22:29:08.936Z,66.63
2023-04-18T22:31:35.475Z,66.54
2023-04-18T22:34:02.101Z,66.64
2023-04-18T22:36:29.000Z,66.78
2023-04-18T22:38:55.575Z,66.31
2023-04-18T22:41:22.196Z,66.50
2023-04-18T22:43:49.143Z,66.27
2023-04-18T22:46:15.774Z,66.10
2023-04-18T22:48:42.320Z,66.45
2023-04-18T22:51:09.159Z,66.54
2023-04-18T22:53:35.876Z,66.67
2023-04-18T22:56:02.460Z,67.09
2023-04-18T22:58:29.073Z,67.33
2023-04-18T23:00:55.811Z,67.34
2023-04-18T23:03:22.645Z,66.89
2023-04-18T23:05:49.408Z,66.91
2023-04-18T23:08:16.094Z,67.10
2023-04-18T23:10:42.682Z,66.79
2023-04-18T23:13:09.321Z,67.18
2023-04-18T23:15:35.995Z,67.36
2023-04-18T23:18:02.729Z,67.57
2023-04-18T23:20:29.475Z,67.46
2023-04-18T23:22:56.135Z,67.70
2023-04-18T23:25:22.919Z,67.59
2023-04-18T23:27:49.490Z,67.70
2023-04-18T23:30:16.144Z,67.89
2023-04-18T23:32:42.830Z,67.53
2023-04-18T23:35:11.221Z,67.55
2023-04-18T23:37:37.820Z,67.86
2023-04-18T23:40:04.843Z,67.94
2023-04-18T23:42:31.426Z,67.88
2023-04-18T23:44:58.116Z,68.08
2023-04-18T23:47:24.694Z,67.92
2023-04-18T23:49:51.366Z,67.84
2023-04-18T23:52:17.955Z,67.89
2023-04-18T23:54:45.499Z,68.10
2023-04-18T23:57:12.280Z,68.28
2023-04-18T23:59:39.033Z,68.27
